Time;durP1;ratioP1;P1;durP2;ratioP2;P2;SDS_P1;SDS_P2;PMS_P1;PMS_P2;Temp;Humidity;BMP_temperature;BMP_pressure;BME280_temperature;BME280_humidity;BME280_pressure;Samples;Min_cycle;Max_cycle;Signal;HPM_P1;HPM_P2
2021/04/20 00:01:09;;;;;;;10.63;7.80;;;10.90;70.00;;;;;;5013333;28;20425;-61
2021/04/20 00:03:35;;;;;;;13.02;9.25;;;10.80;70.00;;;;;;5013529;28;20100;-61
2021/04/20 00:06:01;;;;;;;11.88;9.52;;;10.80;70.20;;;;;;5013159;28;20354;-61
2021/04/20 00:08:26;;;;;;;10.80;8.05;;;10.70;70.30;;;;;;5013372;28;20381;-61
2021/04/20 00:10:52;;;;;;;12.75;8.60;;;10.70;70.70;;;;;;5013034;28;20030;-60
2021/04/20 00:13:18;;;;;;;10.63;9.20;;;10.70;71.00;;;;;;5013043;28;20473;-61
2021/04/20 00:15:44;;;;;;;11.48;9.43;;;10.70;71.00;;;;;;5013268;28;20026;-62
2021/04/20 00:18:10;;;;;;;11.63;9.60;;;10.70;71.10;;;;;;5013463;28;20160;-62
2021/04/20 00:20:36;;;;;;;11.60;9.25;;;10.60;71.30;;;;;;5006230;28;20030;-62
2021/04/20 00:23:05;;;;;;;11.55;8.75;;;10.60;71.50;;;;;;5011622;28;20029;-62
2021/04/20 00:25:31;;;;;;;12.65;10.00;;;10.60;71.40;;;;;;5012406;28;20113;-61
2021/04/20 00:27:57;;;;;;;13.63;10.05;;;10.60;71.60;;;;;;5013125;28;20072;-61
2021/04/20 00:30:23;;;;;;;12.68;8.77;;;10.60;72.00;;;;;;4999194;28;20470;-62
2021/04/20 00:32:49;;;;;;;12.32;9.32;;;10.60;72.00;;;;;;5012179;28;20029;-61
2021/04/20 00:35:14;;;;;;;14.77;10.05;;;10.60;72.40;;;;;;5013723;28;20469;-61
2021/04/20 00:37:42;;;;;;;12.73;10.10;;;10.60;72.60;;;;;;5017460;28;20485;-61
2021/04/20 00:40:10;;;;;;;14.02;9.60;;;10.60;72.60;;;;;;5017031;28;20469;-61
2021/04/20 00:43:06;;;;;;;12.43;9.43;;;10.60;72.60;;;;;;5015837;28;20034;-60
2021/04/20 00:45:34;;;;;;;11.68;9.18;;;10.60;72.50;;;;;;4996221;28;20460;-61
2021/04/20 00:48:01;;;;;;;12.18;9.50;;;10.50;72.80;;;;;;5014839;28;20036;-61
2021/04/20 00:50:30;;;;;;;13.18;10.38;;;10.50;73.00;;;;;;5015334;28;20532;-60
2021/04/20 00:52:56;;;;;;;13.00;9.65;;;10.50;73.20;;;;;;5016728;28;20036;-61
2021/04/20 00:55:22;;;;;;;12.90;9.10;;;10.50;73.20;;;;;;5016670;28;20101;-61
2021/04/20 00:57:48;;;;;;;11.85;9.60;;;10.50;73.40;;;;;;5017062;28;20034;-61
2021/04/20 01:00:15;;;;;;;13.63;9.73;;;10.50;73.40;;;;;;5016817;28;20114;-61
2021/04/20 01:02:42;;;;;;;12.13;9.13;;;10.50;73.40;;;;;;5016595;28;20033;-60
2021/04/20 01:05:15;;;;;;;13.88;9.68;;;10.40;73.40;;;;;;5015461;28;20026;-60
2021/04/20 01:07:44;;;;;;;13.68;9.82;;;10.40;73.50;;;;;;5005297;28;20043;-61
2021/04/20 01:10:11;;;;;;;12.30;9.35;;;10.30;73.40;;;;;;4998496;28;20037;-60
2021/04/20 01:12:38;;;;;;;11.15;8.63;;;10.30;73.70;;;;;;5016659;28;20113;-61
2021/04/20 01:15:09;;;;;;;12.30;9.43;;;10.30;73.70;;;;;;5016478;28;20064;-61
2021/04/20 01:17:35;;;;;;;12.43;9.25;;;10.30;73.80;;;;;;5016416;28;20079;-61
2021/04/20 01:20:05;;;;;;;13.63;10.23;;;10.20;73.90;;;;;;5016090;28;20470;-62
2021/04/20 01:22:33;;;;;;;13.55;9.75;;;10.20;74.00;;;;;;5016849;28;20527;-61
2021/04/20 01:24:59;;;;;;;13.20;9.75;;;10.20;74.10;;;;;;5016227;28;20142;-61
2021/04/20 01:27:25;;;;;;;12.18;9.23;;;10.20;74.40;;;;;;5016181;28;20064;-61
2021/04/20 01:29:58;;;;;;;12.13;9.93;;;10.20;74.50;;;;;;5014878;28;20131;-62
2021/04/20 01:32:25;;;;;;;14.02;10.05;;;10.20;74.50;;;;;;5015552;28;20492;-61
2021/04/20 01:34:52;;;;;;;13.02;10.23;;;10.20;74.50;;;;;;5015005;28;20033;-62
2021/04/20 01:37:18;;;;;;;14.25;10.63;;;10.20;74.60;;;;;;5015878;28;20022;-61
2021/04/20 01:39:48;;;;;;;15.82;10.90;;;10.20;74.80;;;;;;5015783;28;20466;-61
2021/04/20 01:42:15;;;;;;;12.85;10.20;;;10.20;74.90;;;;;;5015607;28;20026;-61
2021/04/20 01:44:41;;;;;;;14.20;10.43;;;10.20;75.00;;;;;;5014571;28;20030;-61
2021/04/20 01:47:08;;;;;;;13.52;10.85;;;10.20;74.90;;;;;;5015444;28;20054;-61
2021/04/20 01:49:34;;;;;;;15.80;11.18;;;10.20;74.90;;;;;;5015131;28;20092;-62
2021/04/20 01:52:00;;;;;;;13.98;11.05;;;10.10;74.80;;;;;;5014819;28;20025;-63
2021/04/20 01:54:26;;;;;;;14.77;10.90;;;10.10;75.20;;;;;;5014885;28;20037;-60
2021/04/20 01:56:54;;;;;;;15.13;11.60;;;10.10;76.00;;;;;;5015610;28;20026;-61
2021/04/20 01:59:20;;;;;;;15.35;11.82;;;10.10;75.30;;;;;;5015637;28;20022;-62
2021/04/20 02:01:46;;;;;;;16.15;11.88;;;10.10;75.50;;;;;;5014707;28;20026;-61
2021/04/20 02:04:13;;;;;;;15.57;11.82;;;10.10;75.40;;;;;;5015740;28;20068;-61
2021/04/20 02:06:39;;;;;;;16.35;11.48;;;10.10;75.20;;;;;;5015421;28;20046;-61
2021/04/20 02:09:06;;;;;;;15.65;11.95;;;10.10;75.30;;;;;;5014919;28;20030;-59
2021/04/20 02:11:32;;;;;;;16.38;11.93;;;10.10;75.50;;;;;;5014128;28;20030;-62
2021/04/20 02:13:59;;;;;;;18.45;12.73;;;10.10;75.50;;;;;;5015226;28;20474;-62
2021/04/20 02:16:25;;;;;;;17.05;12.07;;;10.00;75.70;;;;;;5015644;28;20022;-61
2021/04/20 02:18:57;;;;;;;16.77;11.80;;;10.00;75.80;;;;;;5015061;28;20411;-61
2021/04/20 02:21:23;;;;;;;16.92;12.70;;;10.10;75.80;;;;;;4997626;28;20092;-61
2021/04/20 02:23:50;;;;;;;16.48;12.52;;;10.10;75.80;;;;;;5015409;28;20121;-61
2021/04/20 02:26:26;;;;;;;17.27;12.13;;;10.10;75.90;;;;;;5015253;28;20076;-61
2021/04/20 02:28:52;;;;;;;18.45;12.93;;;10.10;75.90;;;;;;5015128;28;20034;-61
2021/04/20 02:31:17;;;;;;;16.63;12.30;;;10.10;75.80;;;;;;5012954;28;20021;-61
2021/04/20 02:33:43;;;;;;;17.65;12.57;;;10.20;75.80;;;;;;5014930;28;20091;-60
2021/04/20 02:36:09;;;;;;;15.38;11.55;;;10.20;75.90;;;;;;5014096;28;20524;-62
2021/04/20 02:38:36;;;;;;;16.48;12.18;;;10.20;75.80;;;;;;5012551;28;20397;-62
2021/04/20 02:41:03;;;;;;;16.20;12.05;;;10.20;75.70;;;;;;5014750;28;20026;-59
2021/04/20 02:43:29;;;;;;;17.90;12.20;;;10.20;75.50;;;;;;5014844;28;20022;-61
2021/04/20 02:45:58;;;;;;;15.82;12.55;;;10.20;75.60;;;;;;5013360;28;20501;-61
2021/04/20 02:48:25;;;;;;;16.65;11.63;;;10.20;75.70;;;;;;5014708;28;20026;-61
2021/04/20 02:50:53;;;;;;;16.13;11.65;;;10.20;75.70;;;;;;5013012;28;20537;-60
2021/04/20 02:53:19;;;;;;;17.17;12.35;;;10.20;75.70;;;;;;5014537;28;20080;-61
2021/04/20 02:55:45;;;;;;;16.08;12.75;;;10.20;75.90;;;;;;5014521;28;20429;-61
2021/04/20 02:58:23;;;;;;;17.65;13.10;;;10.30;76.50;;;;;;5014196;28;20030;-60
2021/04/20 03:01:01;;;;;;;16.00;12.05;;;10.30;75.50;;;;;;5013790;28;20030;-61
2021/04/20 03:03:28;;;;;;;15.48;11.52;;;10.30;75.40;;;;;;5013768;28;20037;-62
2021/04/20 03:05:55;;;;;;;15.18;11.63;;;10.30;75.60;;;;;;5013259;28;20548;-61
2021/04/20 03:08:21;;;;;;;17.00;12.77;;;10.30;75.60;;;;;;5013776;28;20022;-61
2021/04/20 03:10:49;;;;;;;14.82;11.50;;;10.30;75.80;;;;;;5014566;28;20025;-61
2021/04/20 03:13:15;;;;;;;18.27;12.82;;;10.30;75.90;;;;;;5014133;28;20026;-61
2021/04/20 03:15:42;;;;;;;17.15;12.90;;;10.30;76.10;;;;;;5014149;28;20025;-62
2021/04/20 03:18:10;;;;;;;16.13;11.98;;;10.30;76.20;;;;;;5014162;28;20359;-61
2021/04/20 03:20:36;;;;;;;15.73;11.52;;;10.40;76.10;;;;;;5013492;28;20087;-61
2021/04/20 03:23:03;;;;;;;15.50;11.38;;;10.50;76.20;;;;;;5014205;28;20033;-62
2021/04/20 03:25:31;;;;;;;16.02;11.57;;;10.60;76.30;;;;;;5014061;28;20032;-61
2021/04/20 03:27:58;;;;;;;15.02;10.57;;;10.70;76.20;;;;;;4994364;28;20026;-62
2021/04/20 03:30:29;;;;;;;13.50;10.38;;;10.80;76.10;;;;;;5003140;28;20037;-62
2021/04/20 03:33:03;;;;;;;14.77;11.38;;;10.90;75.80;;;;;;5013933;28;20028;-62
2021/04/20 03:35:35;;;;;;;15.27;11.18;;;11.00;75.90;;;;;;5013861;28;20018;-62
2021/04/20 03:38:13;;;;;;;14.73;11.55;;;11.10;75.90;;;;;;5014059;28;20022;-62
2021/04/20 03:40:46;;;;;;;13.50;10.32;;;11.20;75.60;;;;;;5005811;28;20029;-59
2021/04/20 03:43:14;;;;;;;15.82;11.18;;;11.30;75.40;;;;;;5013188;28;20026;-62
2021/04/20 03:45:52;;;;;;;14.23;10.40;;;11.40;75.10;;;;;;5012154;28;20061;-61
2021/04/20 03:48:56;;;;;;;12.82;10.30;;;11.50;74.90;;;;;;4997371;28;20034;-61
2021/04/20 03:51:29;;;;;;;13.57;10.63;;;11.60;74.70;;;;;;4976969;28;20109;-61
2021/04/20 03:54:03;;;;;;;14.73;11.30;;;11.70;74.70;;;;;;5009908;28;20359;-61
2021/04/20 03:56:30;;;;;;;13.93;10.07;;;11.90;74.50;;;;;;5014031;28;20461;-62
2021/04/20 03:58:59;;;;;;;13.73;11.35;;;12.00;74.30;;;;;;5013474;28;20025;-61
2021/04/20 04:01:27;;;;;;;13.65;10.52;;;12.10;74.20;;;;;;5013181;28;20683;-61
2021/04/20 04:03:55;;;;;;;13.27;10.73;;;12.20;73.80;;;;;;5013513;28;20049;-62
2021/04/20 04:06:22;;;;;;;14.63;10.65;;;12.30;73.20;;;;;;5013036;28;20129;-62
2021/04/20 04:08:51;;;;;;;14.55;11.38;;;12.40;73.20;;;;;;5013230;28;20034;-62
2021/04/20 04:11:19;;;;;;;13.05;10.93;;;12.60;72.90;;;;;;5011646;28;20026;-62
2021/04/20 04:13:47;;;;;;;13.80;11.27;;;12.70;72.20;;;;;;5010750;28;20474;-62
2021/04/20 04:16:15;;;;;;;12.98;10.30;;;12.70;71.20;;;;;;5013280;28;20367;-62
2021/04/20 04:18:52;;;;;;;15.88;12.20;;;12.70;70.50;;;;;;5013264;28;20481;-61
2021/04/20 04:21:23;;;;;;;13.18;11.23;;;12.70;70.50;;;;;;5012696;28;20032;-62
2021/04/20 04:23:53;;;;;;;15.25;11.50;;;12.70;70.30;;;;;;5012690;28;20161;-61
2021/04/20 04:26:28;;;;;;;16.50;12.57;;;12.60;70.20;;;;;;5013188;28;20053;-62
2021/04/20 04:28:59;;;;;;;16.05;12.20;;;12.60;70.10;;;;;;5013167;28;20037;-62
2021/04/20 04:31:27;;;;;;;14.40;11.95;;;12.50;69.90;;;;;;5006475;28;20030;-62
2021/04/20 04:33:54;;;;;;;16.48;12.68;;;12.40;70.00;;;;;;5013032;28;20022;-62
2021/04/20 04:36:21;;;;;;;16.13;11.90;;;12.30;70.00;;;;;;5027186;28;20022;-62
2021/04/20 04:38:47;;;;;;;14.98;11.32;;;12.30;70.00;;;;;;5012999;28;20526;-62
2021/04/20 04:41:13;;;;;;;16.58;12.55;;;12.20;69.90;;;;;;5013033;28;20100;-61
2021/04/20 04:43:41;;;;;;;14.52;12.02;;;12.20;70.00;;;;;;5013218;28;20034;-62
2021/04/20 04:46:07;;;;;;;15.73;12.48;;;12.20;70.10;;;;;;5011729;28;20104;-61
2021/04/20 04:48:35;;;;;;;15.90;11.80;;;12.10;70.10;;;;;;5012290;28;20521;-62
2021/04/20 04:51:02;;;;;;;13.77;11.40;;;12.10;70.30;;;;;;5011230;28;20025;-62
2021/04/20 04:53:30;;;;;;;15.02;11.45;;;12.10;70.30;;;;;;5012691;28;20065;-62
2021/04/20 04:56:04;;;;;;;15.23;11.52;;;12.00;70.30;;;;;;5011930;28;20026;-61
2021/04/20 04:58:31;;;;;;;17.17;12.27;;;12.00;70.40;;;;;;5012450;28;20052;-61
2021/04/20 05:00:58;;;;;;;16.50;12.20;;;12.00;70.50;;;;;;5012504;28;20024;-62
2021/04/20 05:03:24;;;;;;;13.98;11.55;;;12.00;70.70;;;;;;5012833;28;20030;-61
2021/04/20 05:05:55;;;;;;;15.50;11.13;;;12.00;70.50;;;;;;5012806;28;20057;-61
2021/04/20 05:08:21;;;;;;;15.67;11.53;;;12.00;70.60;;;;;;5012822;28;20473;-61
2021/04/20 05:10:48;;;;;;;15.70;10.93;;;12.00;70.50;;;;;;5012821;28;20264;-61
2021/04/20 05:13:14;;;;;;;14.93;11.77;;;12.10;70.50;;;;;;5012591;28;20037;-61
2021/04/20 05:15:40;;;;;;;14.45;11.55;;;12.10;70.80;;;;;;5012734;28;20030;-62
2021/04/20 05:18:10;;;;;;;14.80;11.18;;;12.20;70.60;;;;;;5011876;28;20026;-60
2021/04/20 05:20:42;;;;;;;13.43;10.67;;;12.30;70.70;;;;;;5011990;28;20018;-61
2021/04/20 05:23:09;;;;;;;16.10;11.50;;;12.40;70.40;;;;;;5016183;28;20112;-62
2021/04/20 05:25:36;;;;;;;11.85;10.02;;;12.50;70.30;;;;;;5016191;28;20041;-61
2021/04/20 05:28:01;;;;;;;14.02;11.05;;;12.60;70.20;;;;;;5016189;28;20026;-60
2021/04/20 05:30:27;;;;;;;13.80;10.93;;;12.70;70.10;;;;;;5014900;28;20034;-60
2021/04/20 05:32:53;;;;;;;15.25;12.48;;;12.90;70.00;;;;;;5015212;28;20021;-60
2021/04/20 05:35:22;;;;;;;14.57;10.88;;;13.00;68.90;;;;;;5016205;28;20085;-60
2021/04/20 05:37:49;;;;;;;12.32;9.93;;;13.10;68.90;;;;;;5014842;28;20101;-61
2021/04/20 05:40:21;;;;;;;11.80;9.60;;;13.30;68.70;;;;;;5015379;28;20033;-61
2021/04/20 05:42:47;;;;;;;15.43;10.32;;;13.50;68.10;;;;;;5013529;28;20662;-61
2021/04/20 05:45:15;;;;;;;13.20;10.27;;;13.50;67.90;;;;;;5009449;28;20665;-60
2021/04/20 05:47:43;;;;;;;14.07;11.02;;;13.60;67.70;;;;;;5006615;28;20145;-62
2021/04/20 05:50:13;;;;;;;12.20;9.73;;;13.50;67.60;;;;;;5007989;28;20029;-61
2021/04/20 05:52:39;;;;;;;12.68;9.68;;;13.50;67.50;;;;;;5010877;28;20145;-60
2021/04/20 05:55:07;;;;;;;13.35;9.48;;;13.50;67.70;;;;;;5014810;28;20409;-61
2021/04/20 05:57:32;;;;;;;12.50;10.02;;;13.40;67.90;;;;;;5010431;28;20042;-60
2021/04/20 06:00:00;;;;;;;12.35;10.20;;;13.40;67.90;;;;;;5005725;28;20049;-61
2021/04/20 06:02:30;;;;;;;13.00;10.75;;;13.40;67.70;;;;;;5004382;28;20092;-61
2021/04/20 06:05:24;;;;;;;12.20;9.80;;;13.40;67.70;;;;;;4991215;28;20023;-61
2021/04/20 06:07:52;;;;;;;13.23;10.98;;;13.40;67.90;;;;;;4999939;28;20288;-61
2021/04/20 06:10:18;;;;;;;12.52;9.52;;;13.30;67.80;;;;;;5004513;28;20030;-60
2021/04/20 06:12:45;;;;;;;12.07;10.57;;;13.30;67.90;;;;;;5001578;28;20793;-62
2021/04/20 06:15:13;;;;;;;14.57;10.77;;;13.30;68.10;;;;;;5005130;28;20034;-62
2021/04/20 06:17:40;;;;;;;14.50;11.13;;;13.30;68.20;;;;;;5001044;28;21964;-60
2021/04/20 06:20:10;;;;;;;12.50;10.18;;;13.30;68.50;;;;;;4999166;28;20034;-59
2021/04/20 06:22:36;;;;;;;11.75;10.25;;;13.30;69.10;;;;;;5005090;28;20038;-60
2021/04/20 06:25:03;;;;;;;13.50;11.18;;;13.30;68.30;;;;;;4997702;28;20084;-60
2021/04/20 06:27:29;;;;;;;12.52;9.77;;;13.30;68.30;;;;;;5001282;28;20077;-60
2021/04/20 06:29:57;;;;;;;12.52;10.27;;;13.30;68.80;;;;;;5003126;28;20037;-60
2021/04/20 06:32:24;;;;;;;12.45;10.25;;;13.30;68.50;;;;;;4999132;28;20076;-60
2021/04/20 06:34:49;;;;;;;14.82;10.98;;;13.40;68.50;;;;;;5001031;28;20514;-60
2021/04/20 06:37:16;;;;;;;13.90;10.82;;;13.40;68.10;;;;;;4999594;28;20041;-61
2021/04/20 06:39:42;;;;;;;13.40;10.90;;;13.40;67.70;;;;;;5001134;28;20022;-60
2021/04/20 06:42:11;;;;;;;13.68;10.52;;;13.30;67.70;;;;;;5000175;28;20049;-59
2021/04/20 06:44:47;;;;;;;12.90;9.77;;;13.30;68.40;;;;;;5002436;28;20026;-60
2021/04/20 06:47:27;;;;;;;12.18;9.85;;;13.30;67.80;;;;;;5002440;28;20026;-60
2021/04/20 06:50:00;;;;;;;12.20;10.07;;;13.30;68.10;;;;;;4999057;28;20041;-61
2021/04/20 06:52:52;;;;;;;11.45;9.68;;;13.30;68.30;;;;;;4994725;28;20048;-60
2021/04/20 06:55:23;;;;;;;12.82;10.40;;;13.30;68.30;;;;;;4992002;28;20804;-60
2021/04/20 06:58:06;;;;;;;13.57;10.77;;;13.30;68.40;;;;;;4996364;28;20026;-56
2021/04/20 07:00:44;;;;;;;11.68;9.65;;;13.30;68.30;;;;;;4996416;28;20030;-59
2021/04/20 07:03:34;;;;;;;12.80;10.05;;;13.40;68.20;;;;;;4995834;28;20041;-61
2021/04/20 07:06:32;;;;;;;11.82;9.60;;;13.40;68.10;;;;;;4999051;28;20057;-60
2021/04/20 07:09:11;;;;;;;12.35;10.05;;;13.40;68.10;;;;;;4983171;28;20503;-56
2021/04/20 07:11:50;;;;;;;11.35;9.80;;;13.40;68.30;;;;;;4995709;28;20037;-59
2021/04/20 07:14:27;;;;;;;13.02;9.52;;;13.40;68.30;;;;;;4995824;28;20033;-58
2021/04/20 07:17:03;;;;;;;11.18;9.20;;;13.40;68.30;;;;;;4994889;28;20033;-58
2021/04/20 07:19:58;;;;;;;11.15;8.77;;;13.50;68.50;;;;;;4999065;28;20037;-59
2021/04/20 07:23:01;;;;;;;11.82;9.00;;;13.70;69.20;;;;;;4995377;28;20525;-57
2021/04/20 07:26:08;;;;;;;9.63;7.80;;;13.90;68.00;;;;;;4990186;28;20041;-59
2021/04/20 07:28:57;;;;;;;9.65;8.45;;;14.00;67.60;;;;;;4991885;28;20048;-59
2021/04/20 07:31:37;;;;;;;10.52;8.45;;;14.20;67.40;;;;;;4996588;28;20898;-59
2021/04/20 07:34:12;;;;;;;11.27;8.50;;;14.30;67.30;;;;;;4992413;28;20033;-58
2021/04/20 07:37:21;;;;;;;9.45;7.95;;;14.30;67.00;;;;;;4984273;28;20080;-60
2021/04/20 07:40:08;;;;;;;9.10;8.00;;;14.40;66.50;;;;;;4910167;28;20097;-56
2021/04/20 07:43:01;;;;;;;9.23;7.68;;;14.50;66.00;;;;;;4989364;28;20046;-60
2021/04/20 07:45:39;;;;;;;9.85;8.10;;;14.50;66.10;;;;;;4995260;28;20586;-58
2021/04/20 07:48:15;;;;;;;9.23;7.85;;;14.50;66.00;;;;;;4993191;28;20502;-59
2021/04/20 07:50:47;;;;;;;8.88;7.47;;;14.60;65.80;;;;;;4995690;28;20030;-60
2021/04/20 07:53:25;;;;;;;9.52;7.53;;;14.70;65.60;;;;;;4997276;28;20034;-61
2021/04/20 07:56:21;;;;;;;8.30;7.03;;;14.80;65.50;;;;;;4992749;28;20112;-60
2021/04/20 07:58:51;;;;;;;9.32;7.65;;;14.80;65.00;;;;;;4993197;28;20029;-61
2021/04/20 08:01:32;;;;;;;8.45;7.28;;;14.90;64.80;;;;;;4990449;28;20041;-60
2021/04/20 08:04:24;;;;;;;8.52;7.25;;;14.90;65.30;;;;;;4997443;28;20040;-61
2021/04/20 08:06:55;;;;;;;7.05;6.35;;;15.00;64.70;;;;;;4959636;28;20092;-59
2021/04/20 08:09:26;;;;;;;8.38;6.78;;;15.00;64.50;;;;;;4995212;28;20030;-60
2021/04/20 08:12:04;;;;;;;7.25;6.03;;;15.10;64.20;;;;;;4999689;28;20034;-60
2021/04/20 08:14:57;;;;;;;7.07;5.93;;;15.20;64.10;;;;;;4995756;28;22055;-59
2021/04/20 08:17:30;;;;;;;7.35;5.85;;;15.20;63.60;;;;;;5000486;28;20116;-60
2021/04/20 08:19:58;;;;;;;6.63;5.88;;;15.20;63.20;;;;;;4995653;28;20033;-60
2021/04/20 08:22:26;;;;;;;6.90;5.70;;;15.30;63.00;;;;;;4998564;28;20100;-60
2021/04/20 08:25:10;;;;;;;6.75;5.70;;;15.40;62.40;;;;;;4996710;28;20038;-60
2021/04/20 08:28:05;;;;;;;6.80;5.80;;;15.40;62.20;;;;;;4994663;28;20030;-59
2021/04/20 08:30:47;;;;;;;6.28;5.47;;;15.40;62.20;;;;;;4990800;28;20038;-60
2021/04/20 08:33:18;;;;;;;6.57;5.57;;;15.50;61.80;;;;;;4993212;28;20433;-59
2021/04/20 08:35:52;;;;;;;6.10;5.45;;;15.50;61.50;;;;;;4996523;28;20030;-60
2021/04/20 08:39:02;;;;;;;6.93;5.55;;;15.60;61.20;;;;;;4995623;28;20034;-58
2021/04/20 08:41:36;;;;;;;7.07;5.47;;;15.60;61.10;;;;;;4991931;28;20029;-60
2021/04/20 08:44:26;;;;;;;5.47;4.57;;;15.70;61.20;;;;;;4997604;28;20148;-60
2021/04/20 08:46:58;;;;;;;5.88;5.07;;;15.70;60.80;;;;;;4994799;28;20419;-61
2021/04/20 08:49:33;;;;;;;5.63;5.00;;;15.80;60.70;;;;;;4999913;28;20064;-60
2021/04/20 08:52:21;;;;;;;5.13;4.30;;;15.80;60.90;;;;;;4995333;28;20030;-61
2021/04/20 08:55:01;;;;;;;5.55;4.63;;;15.80;60.50;;;;;;4988405;28;20057;-59
2021/04/20 08:57:59;;;;;;;5.80;4.88;;;15.80;60.30;;;;;;4992322;28;20393;-61
2021/04/20 09:00:49;;;;;;;5.43;4.82;;;15.90;60.00;;;;;;4976580;28;20128;-60
2021/04/20 09:03:18;;;;;;;4.45;3.85;;;15.90;59.70;;;;;;4980187;28;20085;-60
2021/04/20 09:06:06;;;;;;;5.65;4.82;;;15.90;59.50;;;;;;4998567;28;20101;-61
2021/04/20 09:08:35;;;;;;;4.82;4.32;;;15.90;59.30;;;;;;5001009;28;20033;-61
2021/04/20 09:11:03;;;;;;;5.13;4.35;;;15.90;59.30;;;;;;4994711;28;20395;-61
2021/04/20 09:13:38;;;;;;;6.15;4.88;;;15.90;59.00;;;;;;4996636;28;20135;-61
2021/04/20 09:16:11;;;;;;;5.13;4.25;;;15.90;58.60;;;;;;5002092;28;20505;-61
2021/04/20 09:18:42;;;;;;;5.68;4.80;;;15.90;58.30;;;;;;5001648;28;20091;-56
2021/04/20 09:21:19;;;;;;;4.63;4.15;;;15.90;58.10;;;;;;4990204;28;20113;-59
2021/04/20 09:23:49;;;;;;;5.35;4.22;;;15.90;57.60;;;;;;5002331;28;20121;-60
2021/04/20 09:26:31;;;;;;;5.28;4.30;;;15.90;57.30;;;;;;4999600;28;20121;-59
2021/04/20 09:29:10;;;;;;;4.97;4.10;;;15.90;57.20;;;;;;5002998;28;20032;-60
2021/04/20 09:31:40;;;;;;;5.38;4.65;;;15.80;57.00;;;;;;5006842;28;20030;-59
2021/04/20 09:34:09;;;;;;;4.27;3.87;;;15.80;57.20;;;;;;4991534;28;20034;-60
2021/04/20 09:36:38;;;;;;;4.38;3.83;;;15.80;57.40;;;;;;5008343;28;20366;-60
2021/04/20 09:39:05;;;;;;;4.43;4.03;;;15.80;57.30;;;;;;5005095;28;20048;-59
2021/04/20 09:41:44;;;;;;;4.55;4.05;;;15.90;57.00;;;;;;5005448;28;20765;-60
2021/04/20 09:44:19;;;;;;;4.63;4.05;;;15.90;57.20;;;;;;5006638;28;20057;-59
2021/04/20 09:46:48;;;;;;;4.90;4.10;;;16.00;57.60;;;;;;5004519;28;20066;-60
2021/04/20 09:49:39;;;;;;;6.07;4.68;;;16.00;57.00;;;;;;5006177;28;20045;-59
2021/04/20 09:52:16;;;;;;;5.18;4.68;;;16.00;56.70;;;;;;5003439;28;20800;-59
2021/04/20 09:55:04;;;;;;;4.72;3.97;;;16.10;56.50;;;;;;5002329;28;20509;-59
2021/04/20 09:57:33;;;;;;;5.53;4.63;;;16.10;56.80;;;;;;4985396;28;20022;-58
2021/04/20 10:00:08;;;;;;;5.32;4.53;;;16.10;56.70;;;;;;4991450;28;20385;-59
2021/04/20 10:02:59;;;;;;;4.75;4.25;;;16.10;56.80;;;;;;4998086;28;20851;-59
2021/04/20 10:06:02;;;;;;;4.35;3.95;;;16.00;56.90;;;;;;4993518;28;20966;-58
2021/04/20 10:08:54;;;;;;;5.03;4.40;;;16.00;56.50;;;;;;4998520;28;20381;-59
2021/04/20 10:11:45;;;;;;;4.20;3.80;;;16.00;56.90;;;;;;4982700;28;20109;-58
2021/04/20 10:15:10;;;;;;;5.68;4.10;;;16.00;57.10;;;;;;4996106;28;20038;-59
2021/04/20 10:17:53;;;;;;;4.70;4.20;;;16.00;57.00;;;;;;4944412;28;20110;-59
2021/04/20 10:20:42;;;;;;;4.28;3.75;;;16.00;57.00;;;;;;4948607;28;20066;-59
2021/04/20 10:23:19;;;;;;;4.07;3.67;;;16.00;56.60;;;;;;4996510;28;20517;-59
2021/04/20 10:25:49;;;;;;;5.10;4.50;;;16.10;56.90;;;;;;5006595;28;20038;-59
2021/04/20 10:28:34;;;;;;;6.00;4.55;;;16.00;56.80;;;;;;5011726;28;20040;-59
2021/04/20 10:31:07;;;;;;;4.78;4.28;;;16.10;56.90;;;;;;5005970;28;20030;-60
2021/04/20 10:33:35;;;;;;;4.40;4.00;;;16.10;56.80;;;;;;5000738;28;20037;-59
2021/04/20 10:36:02;;;;;;;5.07;4.20;;;16.10;56.60;;;;;;4996991;28;20060;-58
2021/04/20 10:38:32;;;;;;;6.25;4.72;;;16.10;56.20;;;;;;5008002;28;20049;-58
2021/04/20 10:40:59;;;;;;;5.18;4.13;;;16.10;56.20;;;;;;5007822;28;20643;-58
2021/04/20 10:43:30;;;;;;;3.97;3.58;;;16.10;56.60;;;;;;5000716;28;20034;-58
2021/04/20 10:45:58;;;;;;;4.22;3.83;;;16.10;56.70;;;;;;5004996;28;20033;-58
2021/04/20 10:48:26;;;;;;;4.40;4.00;;;16.10;56.50;;;;;;5007992;28;20120;-58
2021/04/20 10:50:54;;;;;;;6.57;4.13;;;16.20;56.20;;;;;;5001510;28;20072;-59
2021/04/20 10:53:23;;;;;;;4.65;4.00;;;16.20;56.40;;;;;;5005511;28;20389;-59
2021/04/20 10:55:52;;;;;;;4.07;3.65;;;16.20;56.50;;;;;;4997865;28;20034;-59
2021/04/20 10:58:27;;;;;;;4.30;3.90;;;16.30;56.40;;;;;;5005475;28;20028;-58
2021/04/20 11:00:53;;;;;;;4.82;3.55;;;16.30;56.50;;;;;;4999132;28;20033;-59
2021/04/20 11:03:31;;;;;;;5.30;4.80;;;16.30;56.20;;;;;;5001107;28;20071;-58
2021/04/20 11:05:57;;;;;;;4.82;4.32;;;16.30;55.80;;;;;;4999466;28;20473;-58
2021/04/20 11:08:43;;;;;;;5.90;4.47;;;16.20;55.90;;;;;;4994546;28;20030;-59
2021/04/20 11:11:21;;;;;;;4.97;4.18;;;16.20;55.60;;;;;;4999521;28;20036;-59
2021/04/20 11:13:48;;;;;;;6.10;4.68;;;16.10;56.10;;;;;;4999018;28;20351;-59
2021/04/20 11:16:19;;;;;;;5.70;4.60;;;16.10;56.50;;;;;;4999591;28;20030;-60
2021/04/20 11:18:57;;;;;;;5.78;5.18;;;16.10;57.10;;;;;;5005098;28;20030;-57
2021/04/20 11:21:26;;;;;;;6.88;6.18;;;16.00;57.30;;;;;;5002344;28;20034;-62
2021/04/20 11:24:11;;;;;;;8.02;5.70;;;16.00;57.30;;;;;;4977968;28;20621;-57
2021/04/20 11:26:42;;;;;;;6.72;6.00;;;15.90;57.60;;;;;;4994741;28;20029;-58
2021/04/20 11:29:16;;;;;;;6.22;5.63;;;15.80;58.00;;;;;;4994346;28;20043;-58
2021/04/20 11:31:50;;;;;;;7.35;6.65;;;15.80;58.00;;;;;;4995714;28;20803;-62
2021/04/20 11:34:21;;;;;;;6.68;5.97;;;15.80;58.10;;;;;;5000009;28;20054;-60
2021/04/20 11:36:52;;;;;;;6.43;5.78;;;15.70;58.40;;;;;;5001734;28;20099;-60
2021/04/20 11:39:25;;;;;;;7.25;6.03;;;15.60;58.40;;;;;;4999903;28;20041;-61
2021/04/20 11:42:03;;;;;;;6.65;5.90;;;15.60;58.80;;;;;;4982480;28;20125;-61
2021/04/20 11:44:49;;;;;;;6.45;5.78;;;15.50;59.20;;;;;;4998214;28;20049;-60
2021/04/20 11:47:15;;;;;;;6.40;5.72;;;15.50;59.30;;;;;;4998007;28;20044;-61
2021/04/20 11:49:50;;;;;;;6.57;5.88;;;15.50;59.50;;;;;;4994753;28;20041;-62
2021/04/20 11:52:18;;;;;;;6.20;5.43;;;15.50;59.30;;;;;;4994928;28;20061;-61
2021/04/20 11:54:45;;;;;;;6.63;5.85;;;15.40;59.20;;;;;;4992714;28;20029;-61
2021/04/20 11:57:15;;;;;;;7.00;6.00;;;15.40;59.10;;;;;;4998092;28;20049;-61
2021/04/20 11:59:46;;;;;;;6.10;5.50;;;15.40;59.30;;;;;;5003649;28;20741;-61
2021/04/20 12:02:13;;;;;;;6.80;6.10;;;15.30;59.60;;;;;;4998739;28;20034;-61
2021/04/20 12:04:39;;;;;;;7.03;6.15;;;15.20;59.30;;;;;;5000269;28;20061;-61
2021/04/20 12:07:07;;;;;;;7.43;6.70;;;15.20;59.40;;;;;;4998929;28;20046;-61
2021/04/20 12:09:39;;;;;;;8.32;6.88;;;15.20;59.70;;;;;;4993908;28;20827;-60
2021/04/20 12:12:06;;;;;;;7.90;7.10;;;15.20;60.00;;;;;;4990162;28;20050;-59
2021/04/20 12:14:36;;;;;;;8.73;7.18;;;15.10;60.40;;;;;;4995002;28;20052;-60
2021/04/20 12:17:02;;;;;;;10.70;7.43;;;15.10;60.70;;;;;;4997599;28;20033;-60
2021/04/20 12:19:31;;;;;;;9.48;7.78;;;15.10;61.00;;;;;;4998252;28;20045;-61
2021/04/20 12:21:57;;;;;;;8.35;7.00;;;15.10;60.90;;;;;;4996357;28;20456;-60
2021/04/20 12:24:26;;;;;;;7.38;6.68;;;15.00;61.00;;;;;;4976464;28;20034;-60
2021/04/20 12:27:01;;;;;;;6.45;5.85;;;15.00;61.00;;;;;;4988489;28;20508;-60
2021/04/20 12:29:33;;;;;;;7.70;6.80;;;15.00;61.00;;;;;;4996990;28;20029;-60
2021/04/20 12:31:59;;;;;;;7.22;5.95;;;15.00;61.20;;;;;;5001095;28;20026;-60
2021/04/20 12:34:28;;;;;;;6.57;5.88;;;14.90;61.10;;;;;;4999487;28;20409;-60
2021/04/20 12:37:04;;;;;;;6.78;6.13;;;14.90;61.00;;;;;;4999827;28;20453;-60
2021/04/20 12:39:33;;;;;;;5.75;5.15;;;14.90;61.10;;;;;;4999902;28;20034;-60
2021/04/20 12:42:01;;;;;;;7.85;6.43;;;14.90;60.90;;;;;;5001261;28;20029;-60
2021/04/20 12:44:38;;;;;;;6.93;6.05;;;14.90;60.80;;;;;;4981314;28;20037;-60
2021/04/20 12:47:07;;;;;;;9.07;6.45;;;14.90;61.20;;;;;;4999539;28;20034;-60
2021/04/20 12:49:36;;;;;;;7.63;6.63;;;14.90;61.30;;;;;;4997225;28;20057;-59
2021/04/20 12:52:09;;;;;;;6.85;6.15;;;14.90;61.20;;;;;;4992951;28;20029;-60
2021/04/20 12:54:37;;;;;;;7.95;7.03;;;15.00;61.10;;;;;;4993061;28;20081;-60
2021/04/20 12:57:07;;;;;;;8.15;7.35;;;14.90;61.60;;;;;;4994608;28;20040;-59
2021/04/20 12:59:35;;;;;;;9.82;7.60;;;15.00;60.90;;;;;;4991242;28;20041;-59
2021/04/20 13:02:01;;;;;;;8.02;7.22;;;14.90;61.00;;;;;;4992199;28;20033;-60